createdAt,value
2022-12-26T00:04:49.675Z,96.25
2022-12-26T00:09:55.350Z,96.84
2022-12-26T00:14:59.483Z,96.42
2022-12-26T00:20:02.229Z,96.43
2022-12-26T00:25:05.650Z,95.66
2022-12-26T00:30:11.409Z,96.73
2022-12-26T00:35:14.200Z,97.66
2022-12-26T00:40:17.063Z,98.52
2022-12-26T00:45:21.228Z,97.61
2022-12-26T00:50:25.452Z,97.09
2022-12-26T00:55:29.953Z,96.34
2022-12-26T01:00:34.108Z,96.51
2022-12-26T01:05:37.431Z,96.07
2022-12-26T01:10:41.721Z,96.16
2022-12-26T01:15:50.725Z,96.17
2022-12-26T01:20:58.598Z,95.24
2022-12-26T01:26:18.611Z,94.71
2022-12-26T01:31:25.139Z,95.35
2022-12-26T01:36:27.970Z,97.10
2022-12-26T01:41:33.124Z,96.00
2022-12-26T01:46:40.832Z,95.73
2022-12-26T01:51:48.369Z,94.14
2022-12-26T01:56:51.538Z,93.96
2022-12-26T02:01:56.618Z,96.22
2022-12-26T02:07:00.992Z,96.50
2022-12-26T02:12:35.919Z,95.22
2022-12-26T02:17:33.933Z,95.27
2022-12-26T02:23:04.666Z,94.91
2022-12-26T02:28:50.314Z,94.45
2022-12-26T02:34:03.020Z,94.07
2022-12-26T02:39:44.268Z,93.74
2022-12-26T02:45:11.378Z,93.70
2022-12-26T02:50:43.080Z,94.11
2022-12-26T02:56:08.613Z,93.00
2022-12-26T03:01:38.984Z,92.35
2022-12-26T03:07:13.122Z,91.56
2022-12-26T03:13:02.980Z,92.15
2022-12-26T03:18:08.778Z,92.31
2022-12-26T03:23:16.794Z,92.24
2022-12-26T03:28:19.683Z,92.74
2022-12-26T03:33:44.605Z,92.73
2022-12-26T03:38:55.404Z,91.46
2022-12-26T03:44:27.488Z,93.19
2022-12-26T03:49:52.383Z,91.63
2022-12-26T03:55:19.761Z,91.47
2022-12-26T04:00:40.657Z,90.34
2022-12-26T04:06:05.409Z,90.72
2022-12-26T04:11:33.978Z,92.20
2022-12-26T04:16:58.008Z,92.11
2022-12-26T04:22:25.436Z,93.12
2022-12-26T04:27:50.598Z,90.49
2022-12-26T04:33:16.981Z,92.61
2022-12-26T04:38:41.520Z,90.00
2022-12-26T04:44:07.492Z,90.27
2022-12-26T04:49:30.024Z,90.51
2022-12-26T04:54:33.234Z,90.30
2022-12-26T04:59:37.423Z,90.01
2022-12-26T05:04:57.782Z,90.29
2022-12-26T05:10:00.661Z,90.00
2022-12-26T05:15:05.392Z,91.18
2022-12-26T05:20:26.765Z,91.08
2022-12-26T05:25:49.773Z,90.50
2022-12-26T05:30:54.271Z,89.96
2022-12-26T05:35:57.124Z,90.11
2022-12-26T05:41:00.998Z,89.86
2022-12-26T05:46:05.390Z,89.34
2022-12-26T05:51:08.275Z,89.98
2022-12-26T05:56:13.360Z,89.32
2022-12-26T06:01:19.512Z,90.65
2022-12-26T06:06:23.720Z,89.57
2022-12-26T06:11:27.889Z,89.69
2022-12-26T06:16:32.378Z,90.02
2022-12-26T06:21:35.340Z,88.62
2022-12-26T06:26:38.531Z,87.92
2022-12-26T06:31:42.682Z,88.50
2022-12-26T06:36:45.622Z,88.27
2022-12-26T06:41:48.748Z,87.58
2022-12-26T06:46:52.916Z,88.53
2022-12-26T06:51:55.731Z,87.33
2022-12-26T06:56:58.504Z,88.53
2022-12-26T07:02:02.718Z,87.84
2022-12-26T07:07:05.615Z,88.29
2022-12-26T07:12:08.699Z,88.40
2022-12-26T07:17:12.957Z,87.70
2022-12-26T07:22:15.706Z,87.17
2022-12-26T07:27:18.512Z,88.11
2022-12-26T07:32:23.473Z,89.06
2022-12-26T07:37:26.249Z,88.75
2022-12-26T07:42:29.001Z,88.02
2022-12-26T07:47:33.135Z,86.60
2022-12-26T07:52:36.192Z,86.83
2022-12-26T07:57:48.667Z,86.03
2022-12-26T08:02:54.320Z,87.00
2022-12-26T08:07:57.253Z,86.93
2022-12-26T08:13:00.003Z,86.55
2022-12-26T08:18:04.178Z,86.09
2022-12-26T08:23:06.959Z,85.56
2022-12-26T08:28:09.936Z,85.11
2022-12-26T08:33:14.423Z,85.87
2022-12-26T08:38:17.196Z,85.16
2022-12-26T08:43:39.060Z,84.89
2022-12-26T08:48:44.255Z,84.35
2022-12-26T08:53:49.437Z,83.95
2022-12-26T08:58:52.265Z,84.39
2022-12-26T09:03:57.740Z,86.05
2022-12-26T09:09:01.096Z,84.57
2022-12-26T09:14:04.906Z,83.85
2022-12-26T09:19:12.199Z,84.93
2022-12-26T09:24:16.601Z,83.97
2022-12-26T09:29:19.403Z,83.84
2022-12-26T09:34:23.575Z,82.87
2022-12-26T09:39:26.845Z,83.79
2022-12-26T09:44:39.102Z,82.93
2022-12-26T09:49:51.800Z,81.36
2022-12-26T09:54:55.143Z,81.04
2022-12-26T10:00:00.190Z,80.76
2022-12-26T10:05:04.916Z,80.60
2022-12-26T10:10:11.470Z,79.23
2022-12-26T10:15:28.588Z,78.37
2022-12-26T10:20:40.868Z,77.39
2022-12-26T10:25:47.233Z,77.05
2022-12-26T10:30:53.466Z,78.07
2022-12-26T10:35:58.656Z,78.02
2022-12-26T10:41:06.957Z,76.86
2022-12-26T10:46:29.409Z,77.04
2022-12-26T10:51:34.761Z,76.51
2022-12-26T10:56:37.591Z,74.53
2022-12-26T11:01:47.235Z,75.15
2022-12-26T11:06:53.417Z,74.02
2022-12-26T11:11:56.281Z,74.04
2022-12-26T11:17:03.314Z,73.86
2022-12-26T11:22:25.607Z,74.31
2022-12-26T11:27:28.498Z,74.18
2022-12-26T11:32:31.271Z,75.68
2022-12-26T11:37:43.926Z,75.53
2022-12-26T11:42:51.354Z,76.23
2022-12-26T11:47:57.178Z,75.59
2022-12-26T11:53:10.200Z,75.44
2022-12-26T11:58:21.612Z,75.22
2022-12-26T12:03:31.792Z,75.42
2022-12-26T12:08:47.012Z,73.31
2022-12-26T12:14:01.429Z,71.61
2022-12-26T12:19:17.753Z,72.25
2022-12-26T12:24:39.651Z,71.94
2022-12-26T12:30:06.811Z,73.81
2022-12-26T12:35:25.334Z,74.55
2022-12-26T12:40:38.838Z,74.57
2022-12-26T12:45:54.142Z,73.73
2022-12-26T12:51:04.333Z,75.24
2022-12-26T12:56:22.162Z,76.37
2022-12-26T13:01:29.446Z,75.07
2022-12-26T13:06:37.649Z,77.29
2022-12-26T13:11:47.117Z,80.77
2022-12-26T13:16:55.749Z,87.04
2022-12-26T13:22:04.698Z,94.29
2022-12-26T13:27:31.612Z,96.39
2022-12-26T13:32:34.731Z,96.11
2022-12-26T13:37:58.945Z,98.95
2022-12-26T13:43:28.239Z,99.59
2022-12-26T13:48:59.990Z,97.67
2022-12-26T13:54:10.303Z,96.85
2022-12-26T13:59:18.235Z,95.03
2022-12-26T14:04:42.210Z,92.10
2022-12-26T14:09:58.296Z,93.02
2022-12-26T14:15:24.296Z,93.35
2022-12-26T14:20:40.200Z,92.25
2022-12-26T14:25:53.399Z,90.62
2022-12-26T14:31:12.497Z,88.71
2022-12-26T14:36:25.127Z,88.22
2022-12-26T14:41:46.024Z,87.77
2022-12-26T14:47:00.930Z,87.05
2022-12-26T14:52:33.576Z,85.93
2022-12-26T14:57:54.913Z,85.98
2022-12-26T15:03:38.560Z,85.25
2022-12-26T15:09:02.058Z,85.39
2022-12-26T15:14:27.354Z,84.65
2022-12-26T15:19:55.172Z,85.45
2022-12-26T15:25:33.050Z,85.45
2022-12-26T15:30:53.373Z,83.21
2022-12-26T15:36:06.928Z,82.91
2022-12-26T15:41:15.362Z,83.66
2022-12-26T15:46:23.326Z,83.57
2022-12-26T15:51:39.993Z,82.42
2022-12-26T15:56:58.977Z,81.90
2022-12-26T16:02:02.592Z,81.58
2022-12-26T16:07:22.885Z,80.81
2022-12-26T16:12:28.581Z,80.54
2022-12-26T16:17:31.837Z,80.51
2022-12-26T16:22:46.684Z,79.91
2022-12-26T16:27:52.486Z,78.93
2022-12-26T16:32:56.073Z,78.84
2022-12-26T16:38:02.621Z,78.16
2022-12-26T16:43:07.334Z,78.25
2022-12-26T16:48:13.446Z,78.75
2022-12-26T16:53:19.336Z,79.42
2022-12-26T16:58:24.840Z,79.19
2022-12-26T17:03:35.667Z,79.08
2022-12-26T17:08:44.569Z,79.03
2022-12-26T17:13:52.785Z,77.61
2022-12-26T17:18:56.526Z,76.06
2022-12-26T17:24:12.535Z,76.29
2022-12-26T17:29:52.109Z,76.18
2022-12-26T17:34:55.721Z,76.59
2022-12-26T17:40:05.765Z,76.84
2022-12-26T17:45:10.984Z,78.47
2022-12-26T17:50:14.661Z,78.60
2022-12-26T17:55:21.250Z,78.54
2022-12-26T18:00:27.213Z,78.22
2022-12-26T18:05:30.024Z,77.30
2022-12-26T18:10:36.109Z,78.50
2022-12-26T18:15:38.925Z,78.12
2022-12-26T18:20:41.702Z,78.79
2022-12-26T18:25:50.253Z,78.53
2022-12-26T18:30:56.991Z,78.79
2022-12-26T18:36:04.313Z,79.32
2022-12-26T18:41:15.067Z,80.38
2022-12-26T18:46:19.455Z,80.08
2022-12-26T18:51:22.761Z,79.36
2022-12-26T18:56:26.946Z,78.49
2022-12-26T19:01:29.724Z,78.46
2022-12-26T19:06:35.216Z,77.76
2022-12-26T19:11:39.498Z,77.87
2022-12-26T19:16:42.302Z,78.11
2022-12-26T19:21:45.090Z,76.29
2022-12-26T19:26:49.332Z,76.09
2022-12-26T19:31:52.396Z,76.71
2022-12-26T19:36:55.203Z,78.46
2022-12-26T19:41:59.315Z,79.50
2022-12-26T19:47:11.949Z,80.08
2022-12-26T19:52:15.556Z,80.64
2022-12-26T19:57:21.873Z,79.69
2022-12-26T20:02:24.857Z,80.04
2022-12-26T20:07:27.763Z,78.71
2022-12-26T20:12:32.102Z,78.09
2022-12-26T20:17:35.001Z,77.16
2022-12-26T20:22:37.827Z,77.37
2022-12-26T20:27:42.108Z,77.27
2022-12-26T20:32:47.230Z,78.48
2022-12-26T20:37:50.096Z,77.88
2022-12-26T20:42:54.242Z,77.62
2022-12-26T20:47:57.029Z,77.67
2022-12-26T20:52:59.820Z,77.49
2022-12-26T20:58:04.331Z,77.79
2022-12-26T21:03:07.201Z,77.64
2022-12-26T21:08:10.041Z,77.86
2022-12-26T21:13:14.459Z,78.82
2022-12-26T21:18:17.312Z,77.87
2022-12-26T21:23:20.075Z,77.34
2022-12-26T21:28:24.226Z,77.12
2022-12-26T21:33:27.165Z,76.56
2022-12-26T21:38:31.488Z,77.40
2022-12-26T21:43:36.061Z,78.79
2022-12-26T21:48:39.604Z,82.91
2022-12-26T21:53:42.629Z,88.42
2022-12-26T21:59:04.135Z,89.92
2022-12-26T22:04:23.645Z,88.56
2022-12-26T22:09:26.609Z,87.87
2022-12-26T22:14:31.365Z,86.29
2022-12-26T22:19:34.134Z,86.32
2022-12-26T22:24:36.887Z,85.95
2022-12-26T22:29:41.011Z,86.11
2022-12-26T22:34:43.854Z,84.91
2022-12-26T22:39:46.674Z,84.61
2022-12-26T22:44:50.807Z,82.92
2022-12-26T22:49:53.694Z,82.82
2022-12-26T22:54:56.462Z,82.08
2022-12-26T23:00:09.709Z,81.10
2022-12-26T23:05:14.606Z,80.86
2022-12-26T23:10:21.520Z,80.77
2022-12-26T23:15:28.103Z,80.25
2022-12-26T23:20:53.790Z,79.81
2022-12-26T23:26:00.094Z,79.37
2022-12-26T23:31:04.897Z,79.30
2022-12-26T23:36:08.773Z,78.90
2022-12-26T23:41:11.625Z,78.40
2022-12-26T23:46:15.852Z,79.23
2022-12-26T23:51:18.696Z,78.94
2022-12-26T23:56:21.460Z,78.78
